sensor_id;sensor_type;location;lat;lon;timestamp;P1;durP1;ratioP1;P2;durP2;ratioP2
6420;SDS011;3243;50.958;7.012;2023-06-22T00:01:19;5.97;;;5.38;;
6420;SDS011;3243;50.958;7.012;2023-06-22T00:03:47;7.03;;;4.88;;
6420;SDS011;3243;50.958;7.012;2023-06-22T00:06:14;7.20;;;5.45;;
6420;SDS011;3243;50.958;7.012;2023-06-22T00:08:41;8.43;;;5.13;;
6420;SDS011;3243;50.958;7.012;2023-06-22T00:11:08;5.97;;;5.05;;
6420;SDS011;3243;50.958;7.012;2023-06-22T00:13:35;7.03;;;5.38;;
6420;SDS011;3243;50.958;7.012;2023-06-22T00:16:02;7.75;;;5.18;;
6420;SDS011;3243;50.958;7.012;2023-06-22T00:18:29;8.40;;;5.28;;
6420;SDS011;3243;50.958;7.012;2023-06-22T00:20:57;5.38;;;4.88;;
6420;SDS011;3243;50.958;7.012;2023-06-22T00:23:24;6.03;;;4.75;;
6420;SDS011;3243;50.958;7.012;2023-06-22T00:25:51;5.80;;;5.20;;
6420;SDS011;3243;50.958;7.012;2023-06-22T00:28:19;5.60;;;4.90;;
6420;SDS011;3243;50.958;7.012;2023-06-22T00:30:46;5.93;;;5.22;;
6420;SDS011;3243;50.958;7.012;2023-06-22T00:33:15;5.43;;;4.93;;
6420;SDS011;3243;50.958;7.012;2023-06-22T00:35:42;5.55;;;5.05;;
6420;SDS011;3243;50.958;7.012;2023-06-22T00:38:09;6.15;;;4.90;;
6420;SDS011;3243;50.958;7.012;2023-06-22T00:40:37;6.40;;;5.05;;
6420;SDS011;3243;50.958;7.012;2023-06-22T00:43:04;5.70;;;4.97;;
6420;SDS011;3243;50.958;7.012;2023-06-22T00:45:31;5.03;;;4.50;;
6420;SDS011;3243;50.958;7.012;2023-06-22T00:47:59;6.65;;;4.75;;
6420;SDS011;3243;50.958;7.012;2023-06-22T00:50:28;6.45;;;4.50;;
6420;SDS011;3243;50.958;7.012;2023-06-22T00:53:01;6.13;;;4.72;;
6420;SDS011;3243;50.958;7.012;2023-06-22T00:55:39;8.23;;;5.20;;
6420;SDS011;3243;50.958;7.012;2023-06-22T00:58:13;7.28;;;4.85;;
6420;SDS011;3243;50.958;7.012;2023-06-22T01:00:40;6.72;;;4.90;;
6420;SDS011;3243;50.958;7.012;2023-06-22T01:03:08;5.30;;;4.80;;
6420;SDS011;3243;50.958;7.012;2023-06-22T01:05:36;5.90;;;5.10;;
6420;SDS011;3243;50.958;7.012;2023-06-22T01:10:43;5.22;;;4.40;;
6420;SDS011;3243;50.958;7.012;2023-06-22T01:15:51;4.88;;;4.47;;
6420;SDS011;3243;50.958;7.012;2023-06-22T01:18:23;5.60;;;4.82;;
6420;SDS011;3243;50.958;7.012;2023-06-22T01:20:53;5.70;;;4.40;;
6420;SDS011;3243;50.958;7.012;2023-06-22T01:23:39;6.10;;;4.53;;
6420;SDS011;3243;50.958;7.012;2023-06-22T01:26:39;4.72;;;4.07;;
6420;SDS011;3243;50.958;7.012;2023-06-22T01:29:12;4.55;;;4.05;;
6420;SDS011;3243;50.958;7.012;2023-06-22T01:31:40;5.10;;;4.60;;
6420;SDS011;3243;50.958;7.012;2023-06-22T01:34:08;5.50;;;4.57;;
6420;SDS011;3243;50.958;7.012;2023-06-22T01:36:38;5.65;;;4.60;;
6420;SDS011;3243;50.958;7.012;2023-06-22T01:39:06;5.65;;;4.78;;
6420;SDS011;3243;50.958;7.012;2023-06-22T01:41:35;5.80;;;4.38;;
6420;SDS011;3243;50.958;7.012;2023-06-22T01:44:07;5.18;;;4.68;;
6420;SDS011;3243;50.958;7.012;2023-06-22T01:46:35;5.22;;;4.45;;
6420;SDS011;3243;50.958;7.012;2023-06-22T01:49:03;6.03;;;4.80;;
6420;SDS011;3243;50.958;7.012;2023-06-22T01:51:31;5.57;;;4.50;;
6420;SDS011;3243;50.958;7.012;2023-06-22T01:53:58;5.75;;;4.50;;
6420;SDS011;3243;50.958;7.012;2023-06-22T01:56:28;6.30;;;3.90;;
6420;SDS011;3243;50.958;7.012;2023-06-22T02:01:53;7.03;;;4.60;;
6420;SDS011;3243;50.958;7.012;2023-06-22T02:04:27;6.15;;;4.32;;
6420;SDS011;3243;50.958;7.012;2023-06-22T02:06:59;5.40;;;4.90;;
6420;SDS011;3243;50.958;7.012;2023-06-22T02:09:29;8.55;;;4.88;;
6420;SDS011;3243;50.958;7.012;2023-06-22T02:11:56;7.10;;;5.07;;
6420;SDS011;3243;50.958;7.012;2023-06-22T02:14:25;5.72;;;4.70;;
6420;SDS011;3243;50.958;7.012;2023-06-22T02:16:52;5.97;;;4.63;;
6420;SDS011;3243;50.958;7.012;2023-06-22T02:19:23;5.50;;;4.55;;
6420;SDS011;3243;50.958;7.012;2023-06-22T02:21:51;6.68;;;4.47;;
6420;SDS011;3243;50.958;7.012;2023-06-22T02:24:17;5.07;;;4.43;;
6420;SDS011;3243;50.958;7.012;2023-06-22T02:26:44;5.72;;;4.53;;
6420;SDS011;3243;50.958;7.012;2023-06-22T02:29:12;5.80;;;4.30;;
6420;SDS011;3243;50.958;7.012;2023-06-22T02:31:38;5.95;;;4.30;;
6420;SDS011;3243;50.958;7.012;2023-06-22T02:34:06;6.47;;;5.05;;
6420;SDS011;3243;50.958;7.012;2023-06-22T02:36:32;5.25;;;4.75;;
6420;SDS011;3243;50.958;7.012;2023-06-22T02:38:59;5.40;;;4.60;;
6420;SDS011;3243;50.958;7.012;2023-06-22T02:41:27;7.05;;;4.43;;
6420;SDS011;3243;50.958;7.012;2023-06-22T02:43:54;4.85;;;4.20;;
6420;SDS011;3243;50.958;7.012;2023-06-22T02:46:21;5.32;;;4.60;;
6420;SDS011;3243;50.958;7.012;2023-06-22T02:48:48;5.22;;;4.70;;
6420;SDS011;3243;50.958;7.012;2023-06-22T02:51:15;5.60;;;4.45;;
6420;SDS011;3243;50.958;7.012;2023-06-22T02:53:42;5.57;;;4.15;;
6420;SDS011;3243;50.958;7.012;2023-06-22T02:56:11;5.15;;;4.53;;
6420;SDS011;3243;50.958;7.012;2023-06-22T02:58:39;4.97;;;4.07;;
6420;SDS011;3243;50.958;7.012;2023-06-22T03:01:05;5.00;;;4.50;;
6420;SDS011;3243;50.958;7.012;2023-06-22T03:03:32;5.68;;;4.70;;
6420;SDS011;3243;50.958;7.012;2023-06-22T03:05:59;5.20;;;4.70;;
6420;SDS011;3243;50.958;7.012;2023-06-22T03:08:29;6.55;;;4.85;;
6420;SDS011;3243;50.958;7.012;2023-06-22T03:10:56;6.40;;;4.88;;
6420;SDS011;3243;50.958;7.012;2023-06-22T03:13:23;6.10;;;4.55;;
6420;SDS011;3243;50.958;7.012;2023-06-22T03:15:50;8.10;;;4.93;;
6420;SDS011;3243;50.958;7.012;2023-06-22T03:18:17;4.30;;;3.85;;
6420;SDS011;3243;50.958;7.012;2023-06-22T03:20:43;6.32;;;4.45;;
6420;SDS011;3243;50.958;7.012;2023-06-22T03:23:10;5.03;;;4.45;;
6420;SDS011;3243;50.958;7.012;2023-06-22T03:25:37;5.78;;;4.55;;
6420;SDS011;3243;50.958;7.012;2023-06-22T03:28:04;5.15;;;4.35;;
6420;SDS011;3243;50.958;7.012;2023-06-22T03:30:31;5.47;;;4.25;;
6420;SDS011;3243;50.958;7.012;2023-06-22T03:32:58;4.55;;;4.00;;
6420;SDS011;3243;50.958;7.012;2023-06-22T03:35:26;4.68;;;4.05;;
6420;SDS011;3243;50.958;7.012;2023-06-22T03:37:52;6.57;;;4.82;;
6420;SDS011;3243;50.958;7.012;2023-06-22T03:40:19;4.90;;;4.40;;
6420;SDS011;3243;50.958;7.012;2023-06-22T03:42:46;4.80;;;4.00;;
6420;SDS011;3243;50.958;7.012;2023-06-22T03:45:13;5.63;;;4.38;;
6420;SDS011;3243;50.958;7.012;2023-06-22T03:47:40;6.45;;;5.03;;
6420;SDS011;3243;50.958;7.012;2023-06-22T03:50:07;7.20;;;4.70;;
6420;SDS011;3243;50.958;7.012;2023-06-22T03:52:34;5.53;;;4.57;;
6420;SDS011;3243;50.958;7.012;2023-06-22T03:55:01;6.50;;;4.70;;
6420;SDS011;3243;50.958;7.012;2023-06-22T03:57:28;7.88;;;5.05;;
6420;SDS011;3243;50.958;7.012;2023-06-22T03:59:56;5.07;;;4.55;;
6420;SDS011;3243;50.958;7.012;2023-06-22T04:02:24;5.63;;;4.85;;
6420;SDS011;3243;50.958;7.012;2023-06-22T04:04:51;5.20;;;4.70;;
6420;SDS011;3243;50.958;7.012;2023-06-22T04:07:18;6.63;;;6.00;;
6420;SDS011;3243;50.958;7.012;2023-06-22T04:09:46;6.18;;;5.57;;
6420;SDS011;3243;50.958;7.012;2023-06-22T04:12:13;5.88;;;5.28;;
6420;SDS011;3243;50.958;7.012;2023-06-22T04:14:40;6.20;;;5.60;;
6420;SDS011;3243;50.958;7.012;2023-06-22T04:17:07;5.90;;;5.30;;
6420;SDS011;3243;50.958;7.012;2023-06-22T04:19:34;5.80;;;5.18;;
6420;SDS011;3243;50.958;7.012;2023-06-22T04:22:01;6.53;;;5.50;;
6420;SDS011;3243;50.958;7.012;2023-06-22T04:24:28;5.97;;;5.32;;
6420;SDS011;3243;50.958;7.012;2023-06-22T04:26:55;6.15;;;5.55;;
6420;SDS011;3243;50.958;7.012;2023-06-22T04:29:22;7.25;;;5.65;;
6420;SDS011;3243;50.958;7.012;2023-06-22T04:31:55;7.82;;;5.93;;
6420;SDS011;3243;50.958;7.012;2023-06-22T04:34:24;7.65;;;6.15;;
6420;SDS011;3243;50.958;7.012;2023-06-22T04:36:55;7.03;;;6.32;;
6420;SDS011;3243;50.958;7.012;2023-06-22T04:39:22;6.85;;;5.90;;
6420;SDS011;3243;50.958;7.012;2023-06-22T04:41:49;7.60;;;6.60;;
6420;SDS011;3243;50.958;7.012;2023-06-22T04:44:18;8.10;;;6.60;;
6420;SDS011;3243;50.958;7.012;2023-06-22T04:46:51;8.02;;;6.65;;
6420;SDS011;3243;50.958;7.012;2023-06-22T04:49:35;6.90;;;6.30;;
6420;SDS011;3243;50.958;7.012;2023-06-22T04:52:07;8.63;;;7.72;;
6420;SDS011;3243;50.958;7.012;2023-06-22T04:54:35;7.65;;;6.95;;
6420;SDS011;3243;50.958;7.012;2023-06-22T04:57:03;7.97;;;6.85;;
6420;SDS011;3243;50.958;7.012;2023-06-22T04:59:36;8.68;;;7.88;;
6420;SDS011;3243;50.958;7.012;2023-06-22T05:02:05;7.93;;;6.88;;
6420;SDS011;3243;50.958;7.012;2023-06-22T05:04:32;7.07;;;6.38;;
6420;SDS011;3243;50.958;7.012;2023-06-22T05:07:02;7.65;;;6.95;;
6420;SDS011;3243;50.958;7.012;2023-06-22T05:09:29;7.88;;;7.03;;
6420;SDS011;3243;50.958;7.012;2023-06-22T05:11:56;9.35;;;7.10;;
6420;SDS011;3243;50.958;7.012;2023-06-22T05:14:23;6.97;;;6.32;;
6420;SDS011;3243;50.958;7.012;2023-06-22T05:16:50;7.75;;;6.97;;
6420;SDS011;3243;50.958;7.012;2023-06-22T05:19:18;7.55;;;6.85;;
6420;SDS011;3243;50.958;7.012;2023-06-22T05:21:45;8.27;;;7.40;;
6420;SDS011;3243;50.958;7.012;2023-06-22T05:24:12;8.77;;;7.88;;
6420;SDS011;3243;50.958;7.012;2023-06-22T05:26:38;7.72;;;6.60;;
6420;SDS011;3243;50.958;7.012;2023-06-22T05:29:06;8.07;;;6.85;;
6420;SDS011;3243;50.958;7.012;2023-06-22T05:31:33;7.82;;;6.78;;
6420;SDS011;3243;50.958;7.012;2023-06-22T05:34:00;7.82;;;7.13;;
6420;SDS011;3243;50.958;7.012;2023-06-22T05:36:27;8.48;;;7.18;;
6420;SDS011;3243;50.958;7.012;2023-06-22T05:38:55;8.10;;;7.30;;
6420;SDS011;3243;50.958;7.012;2023-06-22T05:41:23;8.05;;;7.25;;
6420;SDS011;3243;50.958;7.012;2023-06-22T05:43:50;8.07;;;7.28;;
6420;SDS011;3243;50.958;7.012;2023-06-22T05:46:19;8.35;;;7.53;;
6420;SDS011;3243;50.958;7.012;2023-06-22T05:48:46;10.40;;;7.45;;
6420;SDS011;3243;50.958;7.012;2023-06-22T05:51:13;10.18;;;6.65;;
6420;SDS011;3243;50.958;7.012;2023-06-22T05:53:40;9.32;;;7.53;;
6420;SDS011;3243;50.958;7.012;2023-06-22T05:56:07;8.45;;;7.10;;
6420;SDS011;3243;50.958;7.012;2023-06-22T05:58:35;8.52;;;6.72;;
6420;SDS011;3243;50.958;7.012;2023-06-22T06:01:01;8.27;;;6.68;;
6420;SDS011;3243;50.958;7.012;2023-06-22T06:03:28;6.93;;;6.25;;
6420;SDS011;3243;50.958;7.012;2023-06-22T06:05:56;6.75;;;6.05;;
6420;SDS011;3243;50.958;7.012;2023-06-22T06:08:23;8.23;;;6.25;;
6420;SDS011;3243;50.958;7.012;2023-06-22T06:10:50;8.25;;;7.38;;
6420;SDS011;3243;50.958;7.012;2023-06-22T06:13:19;7.93;;;6.30;;
6420;SDS011;3243;50.958;7.012;2023-06-22T06:15:45;6.63;;;6.00;;
6420;SDS011;3243;50.958;7.012;2023-06-22T06:18:13;7.97;;;7.18;;
6420;SDS011;3243;50.958;7.012;2023-06-22T06:20:40;8.25;;;6.38;;
6420;SDS011;3243;50.958;7.012;2023-06-22T06:23:07;7.35;;;6.65;;
6420;SDS011;3243;50.958;7.012;2023-06-22T06:25:34;6.80;;;5.95;;
6420;SDS011;3243;50.958;7.012;2023-06-22T06:28:01;6.88;;;5.90;;
6420;SDS011;3243;50.958;7.012;2023-06-22T06:30:29;6.93;;;6.22;;
6420;SDS011;3243;50.958;7.012;2023-06-22T06:32:57;6.80;;;6.20;;
6420;SDS011;3243;50.958;7.012;2023-06-22T06:35:24;8.65;;;6.50;;
6420;SDS011;3243;50.958;7.012;2023-06-22T06:37:51;7.10;;;6.40;;
6420;SDS011;3243;50.958;7.012;2023-06-22T06:40:18;8.27;;;6.70;;
6420;SDS011;3243;50.958;7.012;2023-06-22T06:42:46;8.27;;;6.47;;
6420;SDS011;3243;50.958;7.012;2023-06-22T06:45:21;7.35;;;6.15;;
6420;SDS011;3243;50.958;7.012;2023-06-22T06:47:49;7.50;;;6.75;;
6420;SDS011;3243;50.958;7.012;2023-06-22T06:50:17;7.88;;;7.15;;
6420;SDS011;3243;50.958;7.012;2023-06-22T06:52:44;6.75;;;6.15;;
6420;SDS011;3243;50.958;7.012;2023-06-22T06:55:12;8.07;;;6.68;;
6420;SDS011;3243;50.958;7.012;2023-06-22T06:57:40;6.72;;;6.03;;
6420;SDS011;3243;50.958;7.012;2023-06-22T07:00:09;6.65;;;5.97;;
6420;SDS011;3243;50.958;7.012;2023-06-22T07:02:40;7.78;;;6.20;;
6420;SDS011;3243;50.958;7.012;2023-06-22T07:05:08;7.10;;;6.30;;
6420;SDS011;3243;50.958;7.012;2023-06-22T07:07:36;6.38;;;5.78;;
6420;SDS011;3243;50.958;7.012;2023-06-22T07:10:07;6.70;;;6.10;;
6420;SDS011;3243;50.958;7.012;2023-06-22T07:12:34;8.57;;;6.10;;
6420;SDS011;3243;50.958;7.012;2023-06-22T07:15:04;7.57;;;6.30;;
6420;SDS011;3243;50.958;7.012;2023-06-22T07:17:34;6.80;;;6.20;;
6420;SDS011;3243;50.958;7.012;2023-06-22T07:20:02;6.82;;;6.15;;
6420;SDS011;3243;50.958;7.012;2023-06-22T07:22:36;7.85;;;6.10;;
6420;SDS011;3243;50.958;7.012;2023-06-22T07:25:06;7.40;;;6.60;;
6420;SDS011;3243;50.958;7.012;2023-06-22T07:27:37;8.32;;;6.97;;
6420;SDS011;3243;50.958;7.012;2023-06-22T07:30:06;8.07;;;6.50;;
6420;SDS011;3243;50.958;7.012;2023-06-22T07:32:34;6.85;;;6.15;;
6420;SDS011;3243;50.958;7.012;2023-06-22T07:35:00;7.15;;;6.45;;
6420;SDS011;3243;50.958;7.012;2023-06-22T07:37:28;7.50;;;6.80;;
6420;SDS011;3243;50.958;7.012;2023-06-22T07:39:55;7.65;;;6.85;;
6420;SDS011;3243;50.958;7.012;2023-06-22T07:42:25;8.45;;;6.90;;
6420;SDS011;3243;50.958;7.012;2023-06-22T07:44:53;7.65;;;6.95;;
6420;SDS011;3243;50.958;7.012;2023-06-22T07:47:20;8.13;;;7.00;;
6420;SDS011;3243;50.958;7.012;2023-06-22T07:49:54;8.70;;;7.78;;
6420;SDS011;3243;50.958;7.012;2023-06-22T07:52:24;7.15;;;6.53;;
6420;SDS011;3243;50.958;7.012;2023-06-22T07:54:51;7.95;;;7.15;;
6420;SDS011;3243;50.958;7.012;2023-06-22T07:57:19;7.75;;;6.95;;
6420;SDS011;3243;50.958;7.012;2023-06-22T07:59:46;8.90;;;7.00;;
6420;SDS011;3243;50.958;7.012;2023-06-22T08:02:13;7.93;;;6.70;;
6420;SDS011;3243;50.958;7.012;2023-06-22T08:04:40;8.02;;;6.35;;
6420;SDS011;3243;50.958;7.012;2023-06-22T08:07:07;8.10;;;7.30;;
6420;SDS011;3243;50.958;7.012;2023-06-22T08:09:35;7.82;;;6.55;;
6420;SDS011;3243;50.958;7.012;2023-06-22T08:12:03;9.25;;;6.85;;
6420;SDS011;3243;50.958;7.012;2023-06-22T08:14:30;7.22;;;6.45;;
6420;SDS011;3243;50.958;7.012;2023-06-22T08:16:57;8.00;;;6.68;;
6420;SDS011;3243;50.958;7.012;2023-06-22T08:19:24;6.95;;;6.25;;
6420;SDS011;3243;50.958;7.012;2023-06-22T08:21:51;8.48;;;7.57;;
6420;SDS011;3243;50.958;7.012;2023-06-22T08:24:18;8.38;;;7.32;;
6420;SDS011;3243;50.958;7.012;2023-06-22T08:26:45;9.68;;;7.22;;
6420;SDS011;3243;50.958;7.012;2023-06-22T08:29:12;9.23;;;7.60;;
6420;SDS011;3243;50.958;7.012;2023-06-22T08:31:39;7.93;;;7.13;;
6420;SDS011;3243;50.958;7.012;2023-06-22T08:34:06;8.23;;;6.50;;
6420;SDS011;3243;50.958;7.012;2023-06-22T08:36:33;8.25;;;7.45;;
6420;SDS011;3243;50.958;7.012;2023-06-22T08:39:07;7.68;;;6.97;;
6420;SDS011;3243;50.958;7.012;2023-06-22T08:41:34;7.75;;;7.00;;
6420;SDS011;3243;50.958;7.012;2023-06-22T08:44:01;9.07;;;6.72;;
6420;SDS011;3243;50.958;7.012;2023-06-22T08:46:30;7.15;;;6.45;;
6420;SDS011;3243;50.958;7.012;2023-06-22T08:48:59;8.10;;;7.30;;
6420;SDS011;3243;50.958;7.012;2023-06-22T08:51:27;7.63;;;6.50;;
6420;SDS011;3243;50.958;7.012;2023-06-22T08:53:54;7.80;;;6.80;;
6420;SDS011;3243;50.958;7.012;2023-06-22T08:56:21;7.93;;;6.85;;
6420;SDS011;3243;50.958;7.012;2023-06-22T08:58:48;7.25;;;6.38;;
6420;SDS011;3243;50.958;7.012;2023-06-22T09:01:15;8.15;;;6.65;;
6420;SDS011;3243;50.958;7.012;2023-06-22T09:03:42;7.57;;;6.88;;
6420;SDS011;3243;50.958;7.012;2023-06-22T09:06:10;8.98;;;8.02;;
6420;SDS011;3243;50.958;7.012;2023-06-22T09:08:37;7.68;;;6.53;;
6420;SDS011;3243;50.958;7.012;2023-06-22T09:11:04;8.65;;;7.20;;
6420;SDS011;3243;50.958;7.012;2023-06-22T09:13:32;7.10;;;6.40;;
6420;SDS011;3243;50.958;7.012;2023-06-22T09:15:59;7.35;;;6.63;;
6420;SDS011;3243;50.958;7.012;2023-06-22T09:18:26;7.80;;;7.00;;
6420;SDS011;3243;50.958;7.012;2023-06-22T09:20:53;7.38;;;6.55;;
6420;SDS011;3243;50.958;7.012;2023-06-22T09:23:20;6.88;;;6.05;;
6420;SDS011;3243;50.958;7.012;2023-06-22T09:25:47;9.07;;;6.22;;
6420;SDS011;3243;50.958;7.012;2023-06-22T09:28:14;7.25;;;6.53;;
6420;SDS011;3243;50.958;7.012;2023-06-22T09:30:42;7.78;;;6.53;;
6420;SDS011;3243;50.958;7.012;2023-06-22T09:33:11;7.57;;;6.80;;
6420;SDS011;3243;50.958;7.012;2023-06-22T09:35:38;7.80;;;6.60;;
6420;SDS011;3243;50.958;7.012;2023-06-22T09:38:05;11.10;;;6.40;;
6420;SDS011;3243;50.958;7.012;2023-06-22T09:40:31;7.38;;;6.22;;
6420;SDS011;3243;50.958;7.012;2023-06-22T09:43:01;7.18;;;6.30;;
6420;SDS011;3243;50.958;7.012;2023-06-22T09:45:28;6.78;;;6.15;;
6420;SDS011;3243;50.958;7.012;2023-06-22T09:47:56;6.75;;;6.05;;
6420;SDS011;3243;50.958;7.012;2023-06-22T09:50:23;7.47;;;6.45;;
6420;SDS011;3243;50.958;7.012;2023-06-22T09:52:50;6.47;;;5.88;;
6420;SDS011;3243;50.958;7.012;2023-06-22T09:55:21;7.15;;;6.43;;
6420;SDS011;3243;50.958;7.012;2023-06-22T09:57:48;6.45;;;5.80;;
6420;SDS011;3243;50.958;7.012;2023-06-22T10:00:16;6.55;;;5.95;;
6420;SDS011;3243;50.958;7.012;2023-06-22T10:02:44;7.18;;;6.53;;
6420;SDS011;3243;50.958;7.012;2023-06-22T10:05:12;7.53;;;6.18;;
6420;SDS011;3243;50.958;7.012;2023-06-22T10:07:40;8.25;;;6.22;;
6420;SDS011;3243;50.958;7.012;2023-06-22T10:10:10;7.65;;;6.90;;
6420;SDS011;3243;50.958;7.012;2023-06-22T10:12:41;6.95;;;6.22;;
6420;SDS011;3243;50.958;7.012;2023-06-22T10:15:23;7.50;;;6.63;;
6420;SDS011;3243;50.958;7.012;2023-06-22T10:17:50;7.20;;;6.50;;
6420;SDS011;3243;50.958;7.012;2023-06-22T10:20:17;8.15;;;6.20;;
6420;SDS011;3243;50.958;7.012;2023-06-22T10:22:45;9.25;;;7.70;;
6420;SDS011;3243;50.958;7.012;2023-06-22T10:25:12;20.05;;;10.68;;
6420;SDS011;3243;50.958;7.012;2023-06-22T10:27:39;21.65;;;11.10;;
6420;SDS011;3243;50.958;7.012;2023-06-22T10:30:08;14.80;;;8.35;;
6420;SDS011;3243;50.958;7.012;2023-06-22T10:32:35;15.02;;;8.00;;
6420;SDS011;3243;50.958;7.012;2023-06-22T10:35:03;10.32;;;7.55;;
6420;SDS011;3243;50.958;7.012;2023-06-22T10:37:31;9.45;;;7.72;;
6420;SDS011;3243;50.958;7.012;2023-06-22T10:39:58;11.82;;;7.85;;
6420;SDS011;3243;50.958;7.012;2023-06-22T10:42:25;10.85;;;7.90;;
6420;SDS011;3243;50.958;7.012;2023-06-22T10:44:52;11.32;;;8.65;;
6420;SDS011;3243;50.958;7.012;2023-06-22T10:47:19;10.55;;;8.52;;
6420;SDS011;3243;50.958;7.012;2023-06-22T10:49:45;10.77;;;8.27;;
6420;SDS011;3243;50.958;7.012;2023-06-22T10:52:12;10.93;;;9.30;;
6420;SDS011;3243;50.958;7.012;2023-06-22T10:54:40;12.27;;;10.23;;
6420;SDS011;3243;50.958;7.012;2023-06-22T10:57:07;11.93;;;9.85;;
6420;SDS011;3243;50.958;7.012;2023-06-22T10:59:34;11.32;;;9.57;;
6420;SDS011;3243;50.958;7.012;2023-06-22T11:02:01;12.25;;;10.65;;
6420;SDS011;3243;50.958;7.012;2023-06-22T11:04:28;11.90;;;10.52;;
6420;SDS011;3243;50.958;7.012;2023-06-22T11:06:55;11.95;;;10.10;;
6420;SDS011;3243;50.958;7.012;2023-06-22T11:09:22;11.68;;;10.40;;
6420;SDS011;3243;50.958;7.012;2023-06-22T11:11:55;11.85;;;10.48;;
6420;SDS011;3243;50.958;7.012;2023-06-22T11:14:22;13.77;;;11.13;;
6420;SDS011;3243;50.958;7.012;2023-06-22T11:16:49;12.07;;;10.50;;
6420;SDS011;3243;50.958;7.012;2023-06-22T11:19:16;11.23;;;10.02;;
6420;SDS011;3243;50.958;7.012;2023-06-22T11:21:43;14.63;;;11.20;;
6420;SDS011;3243;50.958;7.012;2023-06-22T11:24:10;12.73;;;11.23;;
6420;SDS011;3243;50.958;7.012;2023-06-22T11:26:37;14.57;;;11.38;;
6420;SDS011;3243;50.958;7.012;2023-06-22T11:29:04;16.92;;;14.18;;
6420;SDS011;3243;50.958;7.012;2023-06-22T11:31:32;16.92;;;12.07;;
6420;SDS011;3243;50.958;7.012;2023-06-22T11:33:59;16.15;;;12.30;;
6420;SDS011;3243;50.958;7.012;2023-06-22T11:36:26;15.20;;;13.13;;
6420;SDS011;3243;50.958;7.012;2023-06-22T11:38:53;15.63;;;12.23;;
6420;SDS011;3243;50.958;7.012;2023-06-22T11:41:19;14.35;;;12.68;;
6420;SDS011;3243;50.958;7.012;2023-06-22T11:43:46;15.88;;;13.15;;
6420;SDS011;3243;50.958;7.012;2023-06-22T11:46:13;16.35;;;14.15;;
6420;SDS011;3243;50.958;7.012;2023-06-22T11:48:40;18.55;;;15.63;;
6420;SDS011;3243;50.958;7.012;2023-06-22T11:51:08;18.17;;;13.88;;
6420;SDS011;3243;50.958;7.012;2023-06-22T11:53:35;16.17;;;13.52;;
6420;SDS011;3243;50.958;7.012;2023-06-22T11:56:02;15.70;;;12.93;;
6420;SDS011;3243;50.958;7.012;2023-06-22T11:58:29;14.57;;;13.05;;
6420;SDS011;3243;50.958;7.012;2023-06-22T12:00:56;13.90;;;12.40;;
6420;SDS011;3243;50.958;7.012;2023-06-22T12:03:23;16.45;;;13.27;;
6420;SDS011;3243;50.958;7.012;2023-06-22T12:05:50;14.40;;;12.85;;
6420;SDS011;3243;50.958;7.012;2023-06-22T12:08:20;13.27;;;11.93;;
6420;SDS011;3243;50.958;7.012;2023-06-22T12:10:49;14.32;;;12.73;;
6420;SDS011;3243;50.958;7.012;2023-06-22T12:13:16;15.40;;;13.38;;
6420;SDS011;3243;50.958;7.012;2023-06-22T12:15:43;16.75;;;13.57;;
6420;SDS011;3243;50.958;7.012;2023-06-22T12:18:10;16.33;;;13.48;;
6420;SDS011;3243;50.958;7.012;2023-06-22T12:20:37;16.35;;;12.57;;
6420;SDS011;3243;50.958;7.012;2023-06-22T12:23:04;14.77;;;12.93;;
6420;SDS011;3243;50.958;7.012;2023-06-22T12:25:31;16.27;;;14.07;;
6420;SDS011;3243;50.958;7.012;2023-06-22T12:27:59;13.27;;;11.93;;
6420;SDS011;3243;50.958;7.012;2023-06-22T12:30:26;14.60;;;13.10;;
6420;SDS011;3243;50.958;7.012;2023-06-22T12:32:53;15.13;;;12.48;;
6420;SDS011;3243;50.958;7.012;2023-06-22T12:35:22;14.43;;;11.95;;
6420;SDS011;3243;50.958;7.012;2023-06-22T12:37:49;13.35;;;11.90;;
6420;SDS011;3243;50.958;7.012;2023-06-22T12:40:16;13.43;;;12.02;;
6420;SDS011;3243;50.958;7.012;2023-06-22T12:42:44;12.52;;;10.80;;
6420;SDS011;3243;50.958;7.012;2023-06-22T12:45:11;13.63;;;12.23;;
6420;SDS011;3243;50.958;7.012;2023-06-22T12:47:38;12.60;;;11.27;;
6420;SDS011;3243;50.958;7.012;2023-06-22T12:50:06;11.88;;;10.73;;
6420;SDS011;3243;50.958;7.012;2023-06-22T12:52:33;13.55;;;12.10;;
6420;SDS011;3243;50.958;7.012;2023-06-22T12:55:00;12.82;;;11.05;;
6420;SDS011;3243;50.958;7.012;2023-06-22T12:57:27;13.63;;;11.02;;
6420;SDS011;3243;50.958;7.012;2023-06-22T12:59:54;16.60;;;11.82;;
6420;SDS011;3243;50.958;7.012;2023-06-22T13:02:21;16.05;;;13.20;;
6420;SDS011;3243;50.958;7.012;2023-06-22T13:04:48;11.13;;;10.00;;
6420;SDS011;3243;50.958;7.012;2023-06-22T13:07:15;12.30;;;11.10;;
6420;SDS011;3243;50.958;7.012;2023-06-22T13:09:48;13.20;;;11.07;;
6420;SDS011;3243;50.958;7.012;2023-06-22T13:12:21;12.80;;;11.35;;
6420;SDS011;3243;50.958;7.012;2023-06-22T13:14:49;11.73;;;10.07;;
6420;SDS011;3243;50.958;7.012;2023-06-22T13:17:16;9.50;;;8.60;;
6420;SDS011;3243;50.958;7.012;2023-06-22T13:19:43;8.88;;;7.85;;
6420;SDS011;3243;50.958;7.012;2023-06-22T13:22:26;9.82;;;8.10;;
6420;SDS011;3243;50.958;7.012;2023-06-22T13:24:59;8.18;;;7.38;;
6420;SDS011;3243;50.958;7.012;2023-06-22T13:27:26;8.75;;;7.75;;
6420;SDS011;3243;50.958;7.012;2023-06-22T13:29:53;8.70;;;7.38;;
6420;SDS011;3243;50.958;7.012;2023-06-22T13:32:20;9.70;;;7.55;;
6420;SDS011;3243;50.958;7.012;2023-06-22T13:34:47;8.20;;;7.38;;
6420;SDS011;3243;50.958;7.012;2023-06-22T13:37:14;9.30;;;7.78;;
6420;SDS011;3243;50.958;7.012;2023-06-22T13:39:41;7.53;;;6.82;;
6420;SDS011;3243;50.958;7.012;2023-06-22T13:42:08;8.15;;;7.43;;
6420;SDS011;3243;50.958;7.012;2023-06-22T13:44:35;7.30;;;6.60;;
6420;SDS011;3243;50.958;7.012;2023-06-22T13:47:02;7.28;;;6.57;;
6420;SDS011;3243;50.958;7.012;2023-06-22T13:49:30;8.77;;;5.90;;
6420;SDS011;3243;50.958;7.012;2023-06-22T13:51:57;5.45;;;4.95;;
6420;SDS011;3243;50.958;7.012;2023-06-22T13:54:26;5.65;;;5.00;;
6420;SDS011;3243;50.958;7.012;2023-06-22T13:56:56;5.93;;;5.13;;
6420;SDS011;3243;50.958;7.012;2023-06-22T13:59:22;7.32;;;4.85;;
6420;SDS011;3243;50.958;7.012;2023-06-22T14:01:49;5.45;;;4.95;;
6420;SDS011;3243;50.958;7.012;2023-06-22T14:04:16;4.95;;;4.53;;
6420;SDS011;3243;50.958;7.012;2023-06-22T14:06:43;7.70;;;4.50;;
6420;SDS011;3243;50.958;7.012;2023-06-22T14:09:10;4.85;;;4.38;;
6420;SDS011;3243;50.958;7.012;2023-06-22T14:11:38;5.20;;;4.68;;
6420;SDS011;3243;50.958;7.012;2023-06-22T14:14:04;5.22;;;4.70;;
6420;SDS011;3243;50.958;7.012;2023-06-22T14:16:31;5.20;;;4.70;;
6420;SDS011;3243;50.958;7.012;2023-06-22T14:18:59;5.68;;;5.07;;
6420;SDS011;3243;50.958;7.012;2023-06-22T14:21:26;5.72;;;5.13;;
6420;SDS011;3243;50.958;7.012;2023-06-22T14:23:53;5.82;;;5.32;;
6420;SDS011;3243;50.958;7.012;2023-06-22T14:26:20;6.32;;;5.55;;
6420;SDS011;3243;50.958;7.012;2023-06-22T14:28:48;6.72;;;5.70;;
6420;SDS011;3243;50.958;7.012;2023-06-22T14:31:18;6.75;;;5.47;;
6420;SDS011;3243;50.958;7.012;2023-06-22T14:33:48;6.15;;;5.65;;
6420;SDS011;3243;50.958;7.012;2023-06-22T14:36:16;5.82;;;5.32;;
6420;SDS011;3243;50.958;7.012;2023-06-22T14:38:44;5.32;;;4.82;;
6420;SDS011;3243;50.958;7.012;2023-06-22T14:41:13;5.90;;;5.30;;
6420;SDS011;3243;50.958;7.012;2023-06-22T14:43:44;6.00;;;5.50;;
6420;SDS011;3243;50.958;7.012;2023-06-22T14:46:13;6.53;;;5.85;;
6420;SDS011;3243;50.958;7.012;2023-06-22T14:48:41;8.27;;;6.18;;
6420;SDS011;3243;50.958;7.012;2023-06-22T14:51:08;7.80;;;6.70;;
6420;SDS011;3243;50.958;7.012;2023-06-22T14:53:39;6.63;;;6.03;;
6420;SDS011;3243;50.958;7.012;2023-06-22T14:56:06;7.80;;;6.70;;
6420;SDS011;3243;50.958;7.012;2023-06-22T14:58:33;8.23;;;6.88;;
6420;SDS011;3243;50.958;7.012;2023-06-22T15:01:02;9.68;;;7.20;;
6420;SDS011;3243;50.958;7.012;2023-06-22T15:03:33;15.82;;;8.50;;
6420;SDS011;3243;50.958;7.012;2023-06-22T15:06:02;12.80;;;8.40;;
6420;SDS011;3243;50.958;7.012;2023-06-22T15:08:29;9.77;;;7.65;;
6420;SDS011;3243;50.958;7.012;2023-06-22T15:11:00;12.80;;;8.13;;
6420;SDS011;3243;50.958;7.012;2023-06-22T15:13:29;11.90;;;8.00;;
6420;SDS011;3243;50.958;7.012;2023-06-22T15:16:00;14.05;;;9.10;;
6420;SDS011;3243;50.958;7.012;2023-06-22T15:18:29;9.65;;;8.30;;
6420;SDS011;3243;50.958;7.012;2023-06-22T15:20:57;11.25;;;8.68;;
6420;SDS011;3243;50.958;7.012;2023-06-22T15:23:25;11.60;;;8.90;;